Pleasureville, Kentucky
Current Conditions -  °F | °C
As of 9:53 PM on Thursday 18 Dec 2014 (Local Time) from KFFT Reporting Station
Overcast Overcast  
Wind Chill: 30°   Ceiling: 5000
Heat Index: 30°   Visibility: 10mi
Dew Point: 23°   Wind: 3mph
Humidity: 75%   Direction: NA
Pressure: 30.23"   Gusts: NA
Location:  38.35°N, 85.12°W
Report Text: KFFT 190253Z AUTO VRB03KT 10SM OVC050 M01/M05 A3023 RMK AO2 SLP244 T10111050 51007
Loading
Personal Weather Stations






























Interactive Weather Map New forecast layout! Learn more

10-Day Weather Forecast

Advertisements
Track Severe Weather on mobile